sensor_id;sensor_type;location;lat;lon;timestamp;pressure;altitude;pressure_sealevel;temperature;humidity
4576;BME280;2300;51.874;8.430;2023-04-04T00:00:46;102188.91;;;-0.48;74.25
4576;BME280;2300;51.874;8.430;2023-04-04T00:03:12;102181.66;;;-0.48;74.38
4576;BME280;2300;51.874;8.430;2023-04-04T00:05:38;102188.91;;;-0.48;74.21
4576;BME280;2300;51.874;8.430;2023-04-04T00:08:07;102178.47;;;-0.53;74.45
4576;BME280;2300;51.874;8.430;2023-04-04T00:10:33;102184.59;;;-0.51;74.08
4576;BME280;2300;51.874;8.430;2023-04-04T00:13:00;102183.50;;;-0.48;73.90
4576;BME280;2300;51.874;8.430;2023-04-04T00:15:27;102190.63;;;-0.47;73.91
4576;BME280;2300;51.874;8.430;2023-04-04T00:17:53;102178.31;;;-0.40;73.66
4576;BME280;2300;51.874;8.430;2023-04-04T00:20:21;102167.53;;;-0.51;73.47
4576;BME280;2300;51.874;8.430;2023-04-04T00:22:48;102175.88;;;-0.43;73.47
4576;BME280;2300;51.874;8.430;2023-04-04T00:25:16;102175.88;;;-0.43;73.40
4576;BME280;2300;51.874;8.430;2023-04-04T00:27:42;102183.72;;;-0.40;73.26
4576;BME280;2300;51.874;8.430;2023-04-04T00:30:10;102169.13;;;-0.49;73.47
4576;BME280;2300;51.874;8.430;2023-04-04T00:32:36;102169.03;;;-0.47;73.68
4576;BME280;2300;51.874;8.430;2023-04-04T00:35:03;102173.41;;;-0.46;73.73
4576;BME280;2300;51.874;8.430;2023-04-04T00:37:30;102163.84;;;-0.50;73.57
4576;BME280;2300;51.874;8.430;2023-04-04T00:39:56;102167.69;;;-0.53;74.13
4576;BME280;2300;51.874;8.430;2023-04-04T00:42:24;102160.69;;;-0.55;74.10
4576;BME280;2300;51.874;8.430;2023-04-04T00:44:52;102166.06;;;-0.55;73.85
4576;BME280;2300;51.874;8.430;2023-04-04T00:47:21;102170.59;;;-0.56;73.64
4576;BME280;2300;51.874;8.430;2023-04-04T00:49:47;102171.00;;;-0.60;73.52
4576;BME280;2300;51.874;8.430;2023-04-04T00:52:15;102173.09;;;-0.64;74.04
4576;BME280;2300;51.874;8.430;2023-04-04T00:54:41;102169.16;;;-0.60;73.82
4576;BME280;2300;51.874;8.430;2023-04-04T00:57:08;102165.09;;;-0.66;73.76
4576;BME280;2300;51.874;8.430;2023-04-04T00:59:36;102149.44;;;-0.83;73.58
4576;BME280;2300;51.874;8.430;2023-04-04T01:02:03;102171.00;;;-0.72;73.99
4576;BME280;2300;51.874;8.430;2023-04-04T01:04:29;102162.69;;;-0.80;73.84
4576;BME280;2300;51.874;8.430;2023-04-04T01:06:56;102164.63;;;-0.82;74.24
4576;BME280;2300;51.874;8.430;2023-04-04T01:09:24;102154.97;;;-0.84;74.42
4576;BME280;2300;51.874;8.430;2023-04-04T01:11:51;102156.69;;;-0.83;74.01
4576;BME280;2300;51.874;8.430;2023-04-04T01:14:18;102148.22;;;-0.90;74.29
4576;BME280;2300;51.874;8.430;2023-04-04T01:16:46;102155.94;;;-0.85;73.84
4576;BME280;2300;51.874;8.430;2023-04-04T01:19:29;102154.09;;;-0.85;74.06
4576;BME280;2300;51.874;8.430;2023-04-04T01:21:58;102154.84;;;-0.94;74.71
4576;BME280;2300;51.874;8.430;2023-04-04T01:24:27;102141.84;;;-1.11;74.39
4576;BME280;2300;51.874;8.430;2023-04-04T01:26:59;102161.81;;;-1.02;74.58
4576;BME280;2300;51.874;8.430;2023-04-04T01:29:26;102153.13;;;-1.06;75.19
4576;BME280;2300;51.874;8.430;2023-04-04T01:31:56;102147.47;;;-1.03;74.82
4576;BME280;2300;51.874;8.430;2023-04-04T01:34:41;102152.38;;;-1.08;75.01
4576;BME280;2300;51.874;8.430;2023-04-04T01:37:16;102160.34;;;-1.07;75.10
4576;BME280;2300;51.874;8.430;2023-04-04T01:39:47;102158.50;;;-1.17;75.86
4576;BME280;2300;51.874;8.430;2023-04-04T01:42:15;102150.78;;;-1.22;75.66
4576;BME280;2300;51.874;8.430;2023-04-04T01:44:44;102148.19;;;-1.23;76.06
4576;BME280;2300;51.874;8.430;2023-04-04T01:47:11;102143.06;;;-1.26;75.78
4576;BME280;2300;51.874;8.430;2023-04-04T01:49:38;102141.34;;;-1.27;75.76
4576;BME280;2300;51.874;8.430;2023-04-04T01:52:04;102102.56;;;-1.60;76.13
4576;BME280;2300;51.874;8.430;2023-04-04T01:54:31;102134.69;;;-1.34;76.03
4576;BME280;2300;51.874;8.430;2023-04-04T01:57:00;102137.75;;;-1.39;77.74
4576;BME280;2300;51.874;8.430;2023-04-04T01:59:28;102140.59;;;-1.40;77.85
4576;BME280;2300;51.874;8.430;2023-04-04T02:01:54;102137.75;;;-1.39;77.40
4576;BME280;2300;51.874;8.430;2023-04-04T02:04:21;102138.41;;;-1.35;76.97
4576;BME280;2300;51.874;8.430;2023-04-04T02:06:48;102133.47;;;-1.41;77.07
4576;BME280;2300;51.874;8.430;2023-04-04T02:09:16;102133.47;;;-1.41;77.21
4576;BME280;2300;51.874;8.430;2023-04-04T02:11:43;102137.41;;;-1.45;77.05
4576;BME280;2300;51.874;8.430;2023-04-04T02:14:09;102135.19;;;-1.52;77.36
4576;BME280;2300;51.874;8.430;2023-04-04T02:16:37;102136.66;;;-1.47;77.60
4576;BME280;2300;51.874;8.430;2023-04-04T02:19:03;102131.16;;;-1.46;77.87
4576;BME280;2300;51.874;8.430;2023-04-04T02:21:30;102130.03;;;-1.43;77.58
4576;BME280;2300;51.874;8.430;2023-04-04T02:23:57;102133.94;;;-1.47;78.21
4576;BME280;2300;51.874;8.430;2023-04-04T02:26:23;102135.91;;;-1.50;78.63
4576;BME280;2300;51.874;8.430;2023-04-04T02:28:49;102121.56;;;-1.61;78.83
4576;BME280;2300;51.874;8.430;2023-04-04T02:31:16;102137.13;;;-1.54;78.44
4576;BME280;2300;51.874;8.430;2023-04-04T02:33:44;102130.16;;;-1.56;78.33
4576;BME280;2300;51.874;8.430;2023-04-04T02:36:10;102134.69;;;-1.57;77.67
4576;BME280;2300;51.874;8.430;2023-04-04T02:38:37;102125.25;;;-1.62;78.01
4576;BME280;2300;51.874;8.430;2023-04-04T02:41:03;102121.19;;;-1.68;78.54
4576;BME280;2300;51.874;8.430;2023-04-04T02:43:30;102126.56;;;-1.68;78.77
4576;BME280;2300;51.874;8.430;2023-04-04T02:45:56;102115.66;;;-1.77;78.81
4576;BME280;2300;51.874;8.430;2023-04-04T02:48:23;102131.22;;;-1.59;78.62
4576;BME280;2300;51.874;8.430;2023-04-04T02:50:52;102126.81;;;-1.60;78.48
4576;BME280;2300;51.874;8.430;2023-04-04T02:53:19;102120.06;;;-1.65;77.91
4576;BME280;2300;51.874;8.430;2023-04-04T02:55:45;102119.34;;;-1.67;78.93
4576;BME280;2300;51.874;8.430;2023-04-04T02:58:12;102113.47;;;-1.72;79.20
4576;BME280;2300;51.874;8.430;2023-04-04T03:00:39;102112.34;;;-1.70;79.39
4576;BME280;2300;51.874;8.430;2023-04-04T03:03:06;102121.66;;;-1.74;79.64
4576;BME280;2300;51.874;8.430;2023-04-04T03:05:32;102114.19;;;-1.70;79.68
4576;BME280;2300;51.874;8.430;2023-04-04T03:08:00;102113.44;;;-1.83;79.26
4576;BME280;2300;51.874;8.430;2023-04-04T03:10:29;102109.00;;;-1.84;79.54
4576;BME280;2300;51.874;8.430;2023-04-04T03:12:56;102108.03;;;-1.83;78.98
4576;BME280;2300;51.874;8.430;2023-04-04T03:15:22;102103.72;;;-1.86;79.32
4576;BME280;2300;51.874;8.430;2023-04-04T03:17:49;102104.09;;;-1.90;79.58
4576;BME280;2300;51.874;8.430;2023-04-04T03:20:16;102105.81;;;-1.89;79.77
4576;BME280;2300;51.874;8.430;2023-04-04T03:22:43;102107.03;;;-1.94;80.22
4576;BME280;2300;51.874;8.430;2023-04-04T03:25:10;102102.72;;;-1.96;79.98
4576;BME280;2300;51.874;8.430;2023-04-04T03:27:37;102103.94;;;-2.00;79.43
4576;BME280;2300;51.874;8.430;2023-04-04T03:30:06;102094.28;;;-2.03;79.63
4576;BME280;2300;51.874;8.430;2023-04-04T03:32:32;102089.25;;;-2.07;79.93
4576;BME280;2300;51.874;8.430;2023-04-04T03:35:00;102101.34;;;-2.13;80.12
4576;BME280;2300;51.874;8.430;2023-04-04T03:37:28;102092.63;;;-2.16;80.12
4576;BME280;2300;51.874;8.430;2023-04-04T03:39:54;102074.84;;;-2.30;80.32
4576;BME280;2300;51.874;8.430;2023-04-04T03:42:22;102094.44;;;-2.17;80.34
4576;BME280;2300;51.874;8.430;2023-04-04T03:44:49;102068.31;;;-2.39;79.92
4576;BME280;2300;51.874;8.430;2023-04-04T03:47:16;102082.91;;;-2.30;80.94
4576;BME280;2300;51.874;8.430;2023-04-04T03:49:43;102090.13;;;-2.30;80.91
4576;BME280;2300;51.874;8.430;2023-04-04T03:52:09;102090.22;;;-2.32;80.70
4576;BME280;2300;51.874;8.430;2023-04-04T03:54:36;102082.91;;;-2.30;80.54
4576;BME280;2300;51.874;8.430;2023-04-04T03:57:03;102080.22;;;-2.30;80.77
4576;BME280;2300;51.874;8.430;2023-04-04T03:59:32;102085.34;;;-2.27;80.73
4576;BME280;2300;51.874;8.430;2023-04-04T04:01:58;102089.88;;;-2.27;80.79
4576;BME280;2300;51.874;8.430;2023-04-04T04:04:24;102080.31;;;-2.31;81.17
4576;BME280;2300;51.874;8.430;2023-04-04T04:06:51;102074.22;;;-2.33;81.66
4576;BME280;2300;51.874;8.430;2023-04-04T04:09:17;102058.75;;;-2.43;81.64
4576;BME280;2300;51.874;8.430;2023-04-04T04:11:44;102083.00;;;-2.31;81.10
4576;BME280;2300;51.874;8.430;2023-04-04T04:14:10;102081.28;;;-2.32;81.26
4576;BME280;2300;51.874;8.430;2023-04-04T04:16:39;102076.94;;;-2.22;81.87
4576;BME280;2300;51.874;8.430;2023-04-04T04:19:06;102075.44;;;-2.26;81.51
4576;BME280;2300;51.874;8.430;2023-04-04T04:21:33;102070.53;;;-2.32;81.43
4576;BME280;2300;51.874;8.430;2023-04-04T04:23:59;102076.72;;;-2.19;81.58
4576;BME280;2300;51.874;8.430;2023-04-04T04:26:25;102062.50;;;-2.21;81.81
4576;BME280;2300;51.874;8.430;2023-04-04T04:28:52;102076.00;;;-2.10;82.11
4576;BME280;2300;51.874;8.430;2023-04-04T04:31:19;102078.28;;;-2.17;81.78
4576;BME280;2300;51.874;8.430;2023-04-04T04:33:47;102072.53;;;-2.23;81.77
4576;BME280;2300;51.874;8.430;2023-04-04T04:36:13;102080.38;;;-2.20;81.45
4576;BME280;2300;51.874;8.430;2023-04-04T04:38:40;102078.91;;;-2.24;81.47
4576;BME280;2300;51.874;8.430;2023-04-04T04:41:06;102079.09;;;-2.27;81.87
4576;BME280;2300;51.874;8.430;2023-04-04T04:43:32;102081.09;;;-2.29;81.82
4576;BME280;2300;51.874;8.430;2023-04-04T04:46:01;102076.16;;;-2.36;82.46
4576;BME280;2300;51.874;8.430;2023-04-04T04:48:27;102074.44;;;-2.37;82.23
4576;BME280;2300;51.874;8.430;2023-04-04T04:50:55;102072.25;;;-2.31;81.90
4576;BME280;2300;51.874;8.430;2023-04-04T04:53:21;102071.84;;;-2.38;81.72
4576;BME280;2300;51.874;8.430;2023-04-04T04:55:48;102082.84;;;-2.41;82.12
4576;BME280;2300;51.874;8.430;2023-04-04T04:58:16;102055.22;;;-2.67;81.70
4576;BME280;2300;51.874;8.430;2023-04-04T05:00:45;102079.53;;;-2.45;81.86
4576;BME280;2300;51.874;8.430;2023-04-04T05:03:11;102077.72;;;-2.44;81.54
4576;BME280;2300;51.874;8.430;2023-04-04T05:05:38;102072.78;;;-2.50;81.19
4576;BME280;2300;51.874;8.430;2023-04-04T05:08:06;102090.53;;;-2.48;81.46
4576;BME280;2300;51.874;8.430;2023-04-04T05:10:32;102085.28;;;-2.49;82.02
4576;BME280;2300;51.874;8.430;2023-04-04T05:12:59;102087.63;;;-2.45;81.57
4576;BME280;2300;51.874;8.430;2023-04-04T05:15:25;102076.84;;;-2.45;81.48
4576;BME280;2300;51.874;8.430;2023-04-04T05:17:53;102085.78;;;-2.44;82.11
4576;BME280;2300;51.874;8.430;2023-04-04T05:20:20;102088.00;;;-2.38;82.49
4576;BME280;2300;51.874;8.430;2023-04-04T05:22:46;102086.66;;;-2.32;82.51
4576;BME280;2300;51.874;8.430;2023-04-04T05:25:14;102085.00;;;-2.22;82.46
4576;BME280;2300;51.874;8.430;2023-04-04T05:27:41;102089.81;;;-2.15;82.55
4576;BME280;2300;51.874;8.430;2023-04-04T05:30:08;102063.00;;;-2.16;82.37
4576;BME280;2300;51.874;8.430;2023-04-04T05:32:35;102095.66;;;-1.86;81.67
4576;BME280;2300;51.874;8.430;2023-04-04T05:35:02;102096.19;;;-1.70;80.91
4576;BME280;2300;51.874;8.430;2023-04-04T05:37:28;102105.91;;;-1.56;80.59
4576;BME280;2300;51.874;8.430;2023-04-04T05:39:55;102092.06;;;-1.40;80.68
4576;BME280;2300;51.874;8.430;2023-04-04T05:42:23;102112.91;;;-1.20;81.08
4576;BME280;2300;51.874;8.430;2023-04-04T05:44:49;102108.50;;;-0.99;80.50
4576;BME280;2300;51.874;8.430;2023-04-04T05:47:16;102110.19;;;-0.76;80.58
4576;BME280;2300;51.874;8.430;2023-04-04T05:49:42;102117.25;;;-0.52;79.80
4576;BME280;2300;51.874;8.430;2023-04-04T05:52:09;102115.59;;;-0.33;78.59
4576;BME280;2300;51.874;8.430;2023-04-04T05:54:36;102125.47;;;-0.11;77.02
4576;BME280;2300;51.874;8.430;2023-04-04T05:57:03;102116.78;;;0.06;76.00
4576;BME280;2300;51.874;8.430;2023-04-04T05:59:30;102120.16;;;0.19;75.27
4576;BME280;2300;51.874;8.430;2023-04-04T06:01:57;102128.00;;;0.43;75.56
4576;BME280;2300;51.874;8.430;2023-04-04T06:04:23;102131.22;;;0.58;74.76
4576;BME280;2300;51.874;8.430;2023-04-04T06:06:50;102132.47;;;0.75;74.58
4576;BME280;2300;51.874;8.430;2023-04-04T06:09:17;102131.84;;;0.92;72.99
4576;BME280;2300;51.874;8.430;2023-04-04T06:11:44;102142.72;;;1.01;73.29
4576;BME280;2300;51.874;8.430;2023-04-04T06:14:11;102137.38;;;0.90;72.24
4576;BME280;2300;51.874;8.430;2023-04-04T06:16:39;102143.66;;;0.91;72.81
4576;BME280;2300;51.874;8.430;2023-04-04T06:19:05;102144.97;;;0.96;71.58
4576;BME280;2300;51.874;8.430;2023-04-04T06:21:33;102141.72;;;1.02;72.04
4576;BME280;2300;51.874;8.430;2023-04-04T06:23:59;102152.78;;;0.99;71.45
4576;BME280;2300;51.874;8.430;2023-04-04T06:26:26;102151.47;;;0.94;71.12
4576;BME280;2300;51.874;8.430;2023-04-04T06:28:52;102154.81;;;0.97;71.78
4576;BME280;2300;51.874;8.430;2023-04-04T06:31:20;102156.25;;;1.01;70.97
4576;BME280;2300;51.874;8.430;2023-04-04T06:33:47;102160.38;;;1.05;71.26
4576;BME280;2300;51.874;8.430;2023-04-04T06:36:14;102158.81;;;1.03;70.62
4576;BME280;2300;51.874;8.430;2023-04-04T06:38:41;102164.72;;;1.18;69.33
4576;BME280;2300;51.874;8.430;2023-04-04T06:41:07;102159.75;;;1.23;69.05
4576;BME280;2300;51.874;8.430;2023-04-04T06:43:33;102167.13;;;1.21;68.48
4576;BME280;2300;51.874;8.430;2023-04-04T06:46:00;102157.50;;;1.28;68.15
4576;BME280;2300;51.874;8.430;2023-04-04T06:48:26;102176.78;;;1.44;68.60
4576;BME280;2300;51.874;8.430;2023-04-04T06:50:54;102170.75;;;1.40;66.97
4576;BME280;2300;51.874;8.430;2023-04-04T06:53:21;102158.09;;;1.41;66.96
4576;BME280;2300;51.874;8.430;2023-04-04T06:55:49;102177.56;;;1.65;65.98
4576;BME280;2300;51.874;8.430;2023-04-04T06:58:15;102179.84;;;1.70;65.55
4576;BME280;2300;51.874;8.430;2023-04-04T07:00:42;102177.59;;;1.84;65.94
4576;BME280;2300;51.874;8.430;2023-04-04T07:03:08;102177.59;;;1.84;65.59
4576;BME280;2300;51.874;8.430;2023-04-04T07:05:36;102175.03;;;1.92;65.21
4576;BME280;2300;51.874;8.430;2023-04-04T07:08:05;102175.31;;;1.89;65.81
4576;BME280;2300;51.874;8.430;2023-04-04T07:10:31;102166.47;;;1.87;65.81
4576;BME280;2300;51.874;8.430;2023-04-04T07:12:58;102181.16;;;2.04;65.72
4576;BME280;2300;51.874;8.430;2023-04-04T07:15:24;102175.19;;;2.10;63.98
4576;BME280;2300;51.874;8.430;2023-04-04T07:17:52;102168.19;;;2.08;64.99
4576;BME280;2300;51.874;8.430;2023-04-04T07:20:19;102159.50;;;2.33;65.21
4576;BME280;2300;51.874;8.430;2023-04-04T07:22:45;102180.06;;;3.66;63.59
4576;BME280;2300;51.874;8.430;2023-04-04T07:25:13;102160.44;;;5.80;60.36
4576;BME280;2300;51.874;8.430;2023-04-04T07:27:40;102151.78;;;7.53;56.24
4576;BME280;2300;51.874;8.430;2023-04-04T07:30:07;102152.56;;;9.35;52.87
4576;BME280;2300;51.874;8.430;2023-04-04T07:32:33;102148.25;;;9.77;50.38
4576;BME280;2300;51.874;8.430;2023-04-04T07:35:02;102156.94;;;11.77;49.04
4576;BME280;2300;51.874;8.430;2023-04-04T07:37:29;102155.25;;;12.95;45.77
4576;BME280;2300;51.874;8.430;2023-04-04T07:39:55;102165.38;;;13.41;45.01
4576;BME280;2300;51.874;8.430;2023-04-04T07:42:23;102154.81;;;13.25;43.12
4576;BME280;2300;51.874;8.430;2023-04-04T07:44:57;102160.78;;;13.79;42.92
4576;BME280;2300;51.874;8.430;2023-04-04T07:47:24;102134.19;;;13.34;41.52
4576;BME280;2300;51.874;8.430;2023-04-04T07:49:52;102158.50;;;15.27;41.16
4576;BME280;2300;51.874;8.430;2023-04-04T07:52:19;102152.41;;;15.91;37.82
4576;BME280;2300;51.874;8.430;2023-04-04T07:54:45;102141.53;;;16.08;38.18
4576;BME280;2300;51.874;8.430;2023-04-04T07:57:13;102141.88;;;16.00;38.01
4576;BME280;2300;51.874;8.430;2023-04-04T07:59:41;102141.28;;;16.27;38.10
4576;BME280;2300;51.874;8.430;2023-04-04T08:02:07;102142.69;;;16.60;38.21
4576;BME280;2300;51.874;8.430;2023-04-04T08:04:34;102146.38;;;16.95;36.65
4576;BME280;2300;51.874;8.430;2023-04-04T08:07:01;102140.09;;;17.58;35.03
4576;BME280;2300;51.874;8.430;2023-04-04T08:09:27;102140.69;;;17.60;35.82
4576;BME280;2300;51.874;8.430;2023-04-04T08:11:58;102145.16;;;17.61;35.57
4576;BME280;2300;51.874;8.430;2023-04-04T08:14:25;102136.09;;;16.84;36.81
4576;BME280;2300;51.874;8.430;2023-04-04T08:16:53;102134.84;;;17.10;36.34
4576;BME280;2300;51.874;8.430;2023-04-04T08:19:19;102132.91;;;16.46;37.63
4576;BME280;2300;51.874;8.430;2023-04-04T08:21:46;102136.97;;;16.96;36.95
4576;BME280;2300;51.874;8.430;2023-04-04T08:24:13;102127.06;;;16.77;36.97
4576;BME280;2300;51.874;8.430;2023-04-04T08:26:39;102134.59;;;17.11;36.40
4576;BME280;2300;51.874;8.430;2023-04-04T08:29:06;102132.13;;;16.80;38.02
4576;BME280;2300;51.874;8.430;2023-04-04T08:31:33;102125.22;;;14.90;37.53
4576;BME280;2300;51.874;8.430;2023-04-04T08:34:00;102115.59;;;13.10;38.62
4576;BME280;2300;51.874;8.430;2023-04-04T08:36:27;102122.00;;;11.77;40.51
4576;BME280;2300;51.874;8.430;2023-04-04T08:38:54;102115.13;;;10.14;41.67
4576;BME280;2300;51.874;8.430;2023-04-04T08:41:20;102129.63;;;8.69;44.64
4576;BME280;2300;51.874;8.430;2023-04-04T08:43:49;102134.56;;;8.74;46.08
4576;BME280;2300;51.874;8.430;2023-04-04T08:46:20;102128.78;;;8.46;47.34
4576;BME280;2300;51.874;8.430;2023-04-04T08:48:49;102119.16;;;8.50;45.59
4576;BME280;2300;51.874;8.430;2023-04-04T08:51:18;102116.72;;;8.93;46.20
4576;BME280;2300;51.874;8.430;2023-04-04T08:53:45;102124.75;;;9.09;45.26
4576;BME280;2300;51.874;8.430;2023-04-04T08:56:12;102111.91;;;8.95;45.34
4576;BME280;2300;51.874;8.430;2023-04-04T08:58:39;102124.19;;;8.99;47.64
4576;BME280;2300;51.874;8.430;2023-04-04T09:01:06;102119.44;;;7.64;46.66
4576;BME280;2300;51.874;8.430;2023-04-04T09:03:33;102110.97;;;7.51;49.39
4576;BME280;2300;51.874;8.430;2023-04-04T09:06:01;102123.31;;;8.01;47.35
4576;BME280;2300;51.874;8.430;2023-04-04T09:08:29;102119.22;;;8.42;46.51
4576;BME280;2300;51.874;8.430;2023-04-04T09:10:56;102122.75;;;8.73;47.55
4576;BME280;2300;51.874;8.430;2023-04-04T09:13:22;102121.84;;;8.96;48.36
4576;BME280;2300;51.874;8.430;2023-04-04T09:15:51;102134.03;;;9.52;48.61
4576;BME280;2300;51.874;8.430;2023-04-04T09:18:18;102130.09;;;9.76;46.24
4576;BME280;2300;51.874;8.430;2023-04-04T09:20:45;102119.81;;;9.63;46.80
4576;BME280;2300;51.874;8.430;2023-04-04T09:23:13;102120.44;;;10.01;45.62
4576;BME280;2300;51.874;8.430;2023-04-04T09:25:46;102110.94;;;9.46;45.39
4576;BME280;2300;51.874;8.430;2023-04-04T09:28:13;102103.97;;;8.70;45.82
4576;BME280;2300;51.874;8.430;2023-04-04T09:30:40;102104.47;;;8.06;47.65
4576;BME280;2300;51.874;8.430;2023-04-04T09:33:08;102097.66;;;8.02;48.82
4576;BME280;2300;51.874;8.430;2023-04-04T09:35:37;102100.22;;;8.26;47.10
4576;BME280;2300;51.874;8.430;2023-04-04T09:38:05;102092.97;;;8.33;46.35
4576;BME280;2300;51.874;8.430;2023-04-04T09:40:33;102091.88;;;8.57;45.69
4576;BME280;2300;51.874;8.430;2023-04-04T09:43:02;102093.94;;;7.95;45.64
4576;BME280;2300;51.874;8.430;2023-04-04T09:45:29;102096.75;;;7.86;46.56
4576;BME280;2300;51.874;8.430;2023-04-04T09:47:56;102086.13;;;7.92;46.79
4576;BME280;2300;51.874;8.430;2023-04-04T09:50:24;102099.56;;;8.24;47.07
4576;BME280;2300;51.874;8.430;2023-04-04T09:52:55;102104.38;;;8.59;47.61
4576;BME280;2300;51.874;8.430;2023-04-04T09:55:30;102108.78;;;8.98;46.98
4576;BME280;2300;51.874;8.430;2023-04-04T09:57:56;102094.78;;;8.93;45.86
4576;BME280;2300;51.874;8.430;2023-04-04T10:00:28;102099.13;;;9.02;45.05
4576;BME280;2300;51.874;8.430;2023-04-04T10:02:55;102098.28;;;8.87;47.25
4576;BME280;2300;51.874;8.430;2023-04-04T10:05:23;102100.84;;;9.18;44.45
4576;BME280;2300;51.874;8.430;2023-04-04T10:07:49;102101.34;;;9.21;45.63
4576;BME280;2300;51.874;8.430;2023-04-04T10:10:16;102102.78;;;8.65;46.68
4576;BME280;2300;51.874;8.430;2023-04-04T10:12:44;102091.69;;;8.44;45.75
4576;BME280;2300;51.874;8.430;2023-04-04T10:15:14;102089.50;;;8.39;43.75
4576;BME280;2300;51.874;8.430;2023-04-04T10:17:43;102072.84;;;8.26;44.82
4576;BME280;2300;51.874;8.430;2023-04-04T10:20:12;102075.34;;;8.50;nan
4576;BME280;2300;51.874;8.430;2023-04-04T10:22:41;102076.34;;;8.35;45.42
4576;BME280;2300;51.874;8.430;2023-04-04T10:25:09;102073.56;;;8.43;47.36
4576;BME280;2300;51.874;8.430;2023-04-04T10:27:36;102069.00;;;8.72;45.52
4576;BME280;2300;51.874;8.430;2023-04-04T10:30:03;102070.78;;;8.65;44.67
4576;BME280;2300;51.874;8.430;2023-04-04T10:32:37;102064.66;;;8.93;48.89
4576;BME280;2300;51.874;8.430;2023-04-04T10:35:11;102064.44;;;9.38;45.60
4576;BME280;2300;51.874;8.430;2023-04-04T10:37:43;102058.88;;;9.32;45.65
4576;BME280;2300;51.874;8.430;2023-04-04T10:40:14;102060.28;;;9.42;43.61
4576;BME280;2300;51.874;8.430;2023-04-04T10:42:43;102069.75;;;9.25;44.92
4576;BME280;2300;51.874;8.430;2023-04-04T10:45:12;102066.06;;;9.18;44.93
4576;BME280;2300;51.874;8.430;2023-04-04T10:47:40;102042.75;;;8.93;45.39
4576;BME280;2300;51.874;8.430;2023-04-04T10:50:10;102051.16;;;8.77;46.11
4576;BME280;2300;51.874;8.430;2023-04-04T10:52:39;102053.31;;;8.66;45.24
4576;BME280;2300;51.874;8.430;2023-04-04T10:55:07;102048.78;;;8.73;46.82
4576;BME280;2300;51.874;8.430;2023-04-04T10:57:37;102054.47;;;9.01;47.36
4576;BME280;2300;51.874;8.430;2023-04-04T11:00:07;102044.63;;;9.07;47.21
4576;BME280;2300;51.874;8.430;2023-04-04T11:02:48;102041.59;;;9.31;45.83
4576;BME280;2300;51.874;8.430;2023-04-04T11:05:22;102030.22;;;9.34;44.51
4576;BME280;2300;51.874;8.430;2023-04-04T11:07:55;102044.84;;;8.91;44.80
4576;BME280;2300;51.874;8.430;2023-04-04T11:10:24;102019.59;;;8.66;44.99
4576;BME280;2300;51.874;8.430;2023-04-04T11:12:53;102035.94;;;9.03;44.48
4576;BME280;2300;51.874;8.430;2023-04-04T11:15:21;102033.28;;;9.10;47.11
4576;BME280;2300;51.874;8.430;2023-04-04T11:17:58;102034.00;;;9.33;45.13
4576;BME280;2300;51.874;8.430;2023-04-04T11:20:34;102021.75;;;9.50;44.48
4576;BME280;2300;51.874;8.430;2023-04-04T11:23:07;102025.88;;;9.61;45.61
4576;BME280;2300;51.874;8.430;2023-04-04T11:25:36;102022.13;;;9.26;45.25
4576;BME280;2300;51.874;8.430;2023-04-04T11:28:06;102026.72;;;9.40;46.23
4576;BME280;2300;51.874;8.430;2023-04-04T11:30:40;102028.22;;;9.43;45.84
4576;BME280;2300;51.874;8.430;2023-04-04T11:33:12;102025.81;;;9.54;46.09
4576;BME280;2300;51.874;8.430;2023-04-04T11:35:45;102014.06;;;9.61;45.19
4576;BME280;2300;51.874;8.430;2023-04-04T11:38:13;102000.47;;;9.31;47.78
4576;BME280;2300;51.874;8.430;2023-04-04T11:40:41;102010.03;;;9.56;47.20
4576;BME280;2300;51.874;8.430;2023-04-04T11:43:10;102014.19;;;10.16;47.74
4576;BME280;2300;51.874;8.430;2023-04-04T11:45:42;102002.41;;;9.94;44.05
4576;BME280;2300;51.874;8.430;2023-04-04T11:48:09;101998.66;;;9.59;45.22
4576;BME280;2300;51.874;8.430;2023-04-04T11:50:38;101994.88;;;9.25;45.04
4576;BME280;2300;51.874;8.430;2023-04-04T11:53:06;101994.44;;;9.21;45.04
4576;BME280;2300;51.874;8.430;2023-04-04T11:55:38;101990.41;;;9.38;44.71
4576;BME280;2300;51.874;8.430;2023-04-04T11:58:09;101985.94;;;9.16;47.31
4576;BME280;2300;51.874;8.430;2023-04-04T12:00:37;101963.75;;;9.11;47.35
4576;BME280;2300;51.874;8.430;2023-04-04T12:03:06;101983.53;;;9.64;45.52
4576;BME280;2300;51.874;8.430;2023-04-04T12:05:35;101979.09;;;9.63;44.53
4576;BME280;2300;51.874;8.430;2023-04-04T12:08:02;101976.66;;;9.74;46.95
4576;BME280;2300;51.874;8.430;2023-04-04T12:10:33;101976.84;;;9.94;44.17
4576;BME280;2300;51.874;8.430;2023-04-04T12:13:00;101972.22;;;9.94;46.37
4576;BME280;2300;51.874;8.430;2023-04-04T12:15:27;101951.69;;;9.90;44.20
4576;BME280;2300;51.874;8.430;2023-04-04T12:20:52;101951.13;;;9.95;44.65
4576;BME280;2300;51.874;8.430;2023-04-04T12:23:18;101964.63;;;9.96;45.93
4576;BME280;2300;51.874;8.430;2023-04-04T12:25:47;101955.50;;;9.47;43.52
4576;BME280;2300;51.874;8.430;2023-04-04T12:28:18;101953.91;;;9.59;47.31
4576;BME280;2300;51.874;8.430;2023-04-04T12:30:45;101959.09;;;9.47;43.73
4576;BME280;2300;51.874;8.430;2023-04-04T12:33:11;101950.00;;;9.26;44.92
4576;BME280;2300;51.874;8.430;2023-04-04T12:35:38;101927.22;;;9.25;45.09
4576;BME280;2300;51.874;8.430;2023-04-04T12:38:05;101941.41;;;9.14;44.48
4576;BME280;2300;51.874;8.430;2023-04-04T12:40:37;101937.41;;;8.95;46.59
4576;BME280;2300;51.874;8.430;2023-04-04T12:43:07;101934.22;;;9.13;45.11
4576;BME280;2300;51.874;8.430;2023-04-04T12:45:37;101923.81;;;9.44;46.45
4576;BME280;2300;51.874;8.430;2023-04-04T12:48:09;101918.91;;;9.82;45.28
4576;BME280;2300;51.874;8.430;2023-04-04T12:50:48;101924.75;;;10.00;46.23
4576;BME280;2300;51.874;8.430;2023-04-04T12:53:15;101926.91;;;10.05;44.89
4576;BME280;2300;51.874;8.430;2023-04-04T12:55:44;101930.44;;;9.99;43.79
4576;BME280;2300;51.874;8.430;2023-04-04T12:58:14;101910.34;;;9.71;44.57
4576;BME280;2300;51.874;8.430;2023-04-04T13:00:41;101913.63;;;9.59;43.70
4576;BME280;2300;51.874;8.430;2023-04-04T13:03:08;101918.19;;;9.95;45.31
4576;BME280;2300;51.874;8.430;2023-04-04T13:05:35;101904.97;;;10.05;46.10
4576;BME280;2300;51.874;8.430;2023-04-04T13:08:06;101903.44;;;10.02;47.28
4576;BME280;2300;51.874;8.430;2023-04-04T13:10:55;101898.28;;;10.49;44.27
4576;BME280;2300;51.874;8.430;2023-04-04T13:13:31;101899.94;;;10.43;46.30
4576;BME280;2300;51.874;8.430;2023-04-04T13:15:58;101895.34;;;10.22;45.40
4576;BME280;2300;51.874;8.430;2023-04-04T13:18:31;101895.34;;;10.22;44.97
4576;BME280;2300;51.874;8.430;2023-04-04T13:20:58;101900.81;;;10.16;44.35